CYCD

Nanaimo Airport

Nanaimo, , Canada
METAR CYCD 200400Z 17002KT 30SM FEW250 22/14 A2996 RMK CI1 LAST STFD OBS/NEXT 201300Z SLP145 DENSITY ALT 900FT
Observed Flight Rules
Jun-20 @ 04:00 UTC (5 hours ago) Visual Flight Rules
Wind Visibility Clouds
170° at 2 knots 30 miles
  • Few at 25,000' AGL
Temperatures Readings
Current 22°C / 72°F
Dewpoint 14°C / 57°F
Humidity 61%
Altimeter 29.96" Hg
Pressure 1014.5 hPa
Elevation 30
METAR CYCD 200400Z 17002KT 30SM FEW250 22/14 A2996 RMK CI1 LAST STFD OBS/NEXT 201300Z SLP145 DENSITY ALT 900FT
Observed Flight Rules
Jun-20 @ 04:00 UTC
(5 hours ago)
VFR
Wind Visibility
170° at 2 knots 30 miles
Clouds
  • Few at 25,000' AGL
Temperature Dewpoint
22°C / 72°F 14°C / 57°F
Humidity Altimeter Pressure
61% 29.96" Hg 1014.5 hPa